sensor_id;sensor_type;location;lat;lon;timestamp;temperature;humidity
64869;DHT22;51349;52.424;10.840;2023-04-19T00:01:22;6.70;99.90
64869;DHT22;51349;52.424;10.840;2023-04-19T00:06:24;6.50;99.90
64869;DHT22;51349;52.424;10.840;2023-04-19T00:11:25;6.40;99.90
64869;DHT22;51349;52.424;10.840;2023-04-19T00:16:26;6.30;99.90
64869;DHT22;51349;52.424;10.840;2023-04-19T00:21:26;6.10;99.90
64869;DHT22;51349;52.424;10.840;2023-04-19T00:26:27;6.00;99.90
64869;DHT22;51349;52.424;10.840;2023-04-19T00:31:28;5.90;99.90
64869;DHT22;51349;52.424;10.840;2023-04-19T00:36:28;5.80;99.90
64869;DHT22;51349;52.424;10.840;2023-04-19T00:41:30;5.70;99.90
64869;DHT22;51349;52.424;10.840;2023-04-19T00:46:30;5.60;99.90
64869;DHT22;51349;52.424;10.840;2023-04-19T00:51:31;5.50;99.90
64869;DHT22;51349;52.424;10.840;2023-04-19T00:56:33;5.40;99.90
64869;DHT22;51349;52.424;10.840;2023-04-19T01:01:37;5.20;99.90
64869;DHT22;51349;52.424;10.840;2023-04-19T01:06:39;5.20;99.90
64869;DHT22;51349;52.424;10.840;2023-04-19T01:11:40;5.10;99.90
64869;DHT22;51349;52.424;10.840;2023-04-19T01:16:41;5.00;99.90
64869;DHT22;51349;52.424;10.840;2023-04-19T01:21:42;5.00;99.90
64869;DHT22;51349;52.424;10.840;2023-04-19T01:26:43;4.80;99.90
64869;DHT22;51349;52.424;10.840;2023-04-19T01:31:43;4.70;99.90
64869;DHT22;51349;52.424;10.840;2023-04-19T01:36:48;4.60;99.90
64869;DHT22;51349;52.424;10.840;2023-04-19T01:41:49;4.60;99.90
64869;DHT22;51349;52.424;10.840;2023-04-19T01:46:49;4.50;99.90
64869;DHT22;51349;52.424;10.840;2023-04-19T01:51:50;4.40;99.90
64869;DHT22;51349;52.424;10.840;2023-04-19T01:56:51;4.30;99.90
64869;DHT22;51349;52.424;10.840;2023-04-19T02:01:51;4.30;99.90
64869;DHT22;51349;52.424;10.840;2023-04-19T02:06:52;4.30;99.90
64869;DHT22;51349;52.424;10.840;2023-04-19T02:11:52;4.20;99.90
64869;DHT22;51349;52.424;10.840;2023-04-19T02:16:53;4.20;99.90
64869;DHT22;51349;52.424;10.840;2023-04-19T02:21:54;4.20;99.90
64869;DHT22;51349;52.424;10.840;2023-04-19T02:26:57;4.10;99.90
64869;DHT22;51349;52.424;10.840;2023-04-19T02:31:57;4.00;99.90
64869;DHT22;51349;52.424;10.840;2023-04-19T02:36:58;3.90;99.90
64869;DHT22;51349;52.424;10.840;2023-04-19T02:41:59;3.90;99.90
64869;DHT22;51349;52.424;10.840;2023-04-19T02:47:01;3.80;99.90
64869;DHT22;51349;52.424;10.840;2023-04-19T02:52:02;3.80;99.90
64869;DHT22;51349;52.424;10.840;2023-04-19T02:57:03;3.70;99.90
64869;DHT22;51349;52.424;10.840;2023-04-19T03:02:03;3.50;99.90
64869;DHT22;51349;52.424;10.840;2023-04-19T03:07:05;3.50;99.90
64869;DHT22;51349;52.424;10.840;2023-04-19T03:12:06;3.40;99.90
64869;DHT22;51349;52.424;10.840;2023-04-19T03:17:07;3.40;99.90
64869;DHT22;51349;52.424;10.840;2023-04-19T03:22:08;3.40;99.90
64869;DHT22;51349;52.424;10.840;2023-04-19T03:27:08;3.40;99.90
64869;DHT22;51349;52.424;10.840;2023-04-19T03:32:09;3.40;99.90
64869;DHT22;51349;52.424;10.840;2023-04-19T03:37:09;3.40;99.90
64869;DHT22;51349;52.424;10.840;2023-04-19T03:42:10;3.40;99.90
64869;DHT22;51349;52.424;10.840;2023-04-19T03:47:11;3.30;99.90
64869;DHT22;51349;52.424;10.840;2023-04-19T03:52:11;3.30;99.90
64869;DHT22;51349;52.424;10.840;2023-04-19T03:57:14;3.30;99.90
64869;DHT22;51349;52.424;10.840;2023-04-19T04:02:14;3.30;99.90
64869;DHT22;51349;52.424;10.840;2023-04-19T04:07:15;3.30;99.90
64869;DHT22;51349;52.424;10.840;2023-04-19T04:12:17;3.20;99.90
64869;DHT22;51349;52.424;10.840;2023-04-19T04:17:17;3.20;99.90
64869;DHT22;51349;52.424;10.840;2023-04-19T04:22:19;3.20;99.90
64869;DHT22;51349;52.424;10.840;2023-04-19T04:27:19;3.20;99.90
64869;DHT22;51349;52.424;10.840;2023-04-19T04:32:21;3.10;99.90
64869;DHT22;51349;52.424;10.840;2023-04-19T04:37:22;3.20;99.90
64869;DHT22;51349;52.424;10.840;2023-04-19T04:42:23;3.20;99.90
64869;DHT22;51349;52.424;10.840;2023-04-19T04:47:24;3.30;99.90
64869;DHT22;51349;52.424;10.840;2023-04-19T04:52:25;3.40;99.90
64869;DHT22;51349;52.424;10.840;2023-04-19T04:57:27;3.40;99.90
64869;DHT22;51349;52.424;10.840;2023-04-19T05:02:28;3.50;99.90
64869;DHT22;51349;52.424;10.840;2023-04-19T05:07:29;3.50;99.90
64869;DHT22;51349;52.424;10.840;2023-04-19T05:12:29;3.60;99.90
64869;DHT22;51349;52.424;10.840;2023-04-19T05:17:30;3.60;99.90
64869;DHT22;51349;52.424;10.840;2023-04-19T05:22:30;3.60;99.90
64869;DHT22;51349;52.424;10.840;2023-04-19T05:27:31;3.70;99.90
64869;DHT22;51349;52.424;10.840;2023-04-19T05:32:32;3.80;99.90
64869;DHT22;51349;52.424;10.840;2023-04-19T05:37:32;3.80;99.90
64869;DHT22;51349;52.424;10.840;2023-04-19T05:42:33;3.90;99.90
64869;DHT22;51349;52.424;10.840;2023-04-19T05:47:34;4.10;99.90
64869;DHT22;51349;52.424;10.840;2023-04-19T05:52:34;4.10;99.90
64869;DHT22;51349;52.424;10.840;2023-04-19T05:57:35;4.20;99.90
64869;DHT22;51349;52.424;10.840;2023-04-19T06:02:36;4.40;99.90
64869;DHT22;51349;52.424;10.840;2023-04-19T06:07:36;4.50;99.90
64869;DHT22;51349;52.424;10.840;2023-04-19T06:12:37;4.60;99.90
64869;DHT22;51349;52.424;10.840;2023-04-19T06:17:38;4.80;99.90
64869;DHT22;51349;52.424;10.840;2023-04-19T06:22:45;4.90;99.90
64869;DHT22;51349;52.424;10.840;2023-04-19T06:27:45;5.10;99.90
64869;DHT22;51349;52.424;10.840;2023-04-19T06:32:46;5.20;99.90
64869;DHT22;51349;52.424;10.840;2023-04-19T06:37:46;5.40;99.90
64869;DHT22;51349;52.424;10.840;2023-04-19T06:42:47;5.50;99.90
64869;DHT22;51349;52.424;10.840;2023-04-19T06:47:48;5.80;99.90
64869;DHT22;51349;52.424;10.840;2023-04-19T06:52:48;6.00;99.90
64869;DHT22;51349;52.424;10.840;2023-04-19T06:57:49;6.10;99.90
64869;DHT22;51349;52.424;10.840;2023-04-19T07:02:50;6.30;99.90
64869;DHT22;51349;52.424;10.840;2023-04-19T07:07:51;6.60;99.90
64869;DHT22;51349;52.424;10.840;2023-04-19T07:12:52;6.80;99.90
64869;DHT22;51349;52.424;10.840;2023-04-19T07:17:52;7.00;99.90
64869;DHT22;51349;52.424;10.840;2023-04-19T07:22:53;7.30;99.90
64869;DHT22;51349;52.424;10.840;2023-04-19T07:27:54;7.60;99.90
64869;DHT22;51349;52.424;10.840;2023-04-19T07:32:55;8.00;99.90
64869;DHT22;51349;52.424;10.840;2023-04-19T07:37:56;8.50;99.90
64869;DHT22;51349;52.424;10.840;2023-04-19T07:42:57;8.90;99.90
64869;DHT22;51349;52.424;10.840;2023-04-19T07:47:57;9.10;99.90
64869;DHT22;51349;52.424;10.840;2023-04-19T07:52:58;9.60;99.90
64869;DHT22;51349;52.424;10.840;2023-04-19T07:58:00;10.00;99.90
64869;DHT22;51349;52.424;10.840;2023-04-19T08:03:01;10.50;98.20
64869;DHT22;51349;52.424;10.840;2023-04-19T08:08:01;10.70;95.20
64869;DHT22;51349;52.424;10.840;2023-04-19T08:13:02;10.90;94.90
64869;DHT22;51349;52.424;10.840;2023-04-19T08:18:03;11.50;92.90
64869;DHT22;51349;52.424;10.840;2023-04-19T08:23:04;11.90;92.70
64869;DHT22;51349;52.424;10.840;2023-04-19T08:28:06;12.10;92.70
64869;DHT22;51349;52.424;10.840;2023-04-19T08:33:07;13.00;92.90
64869;DHT22;51349;52.424;10.840;2023-04-19T08:38:11;13.30;90.40
64869;DHT22;51349;52.424;10.840;2023-04-19T08:43:11;13.10;89.30
64869;DHT22;51349;52.424;10.840;2023-04-19T08:48:14;13.80;87.30
64869;DHT22;51349;52.424;10.840;2023-04-19T08:53:15;13.70;86.40
64869;DHT22;51349;52.424;10.840;2023-04-19T08:58:16;13.80;83.00
64869;DHT22;51349;52.424;10.840;2023-04-19T09:03:17;13.70;81.00
64869;DHT22;51349;52.424;10.840;2023-04-19T09:08:29;15.30;84.00
64869;DHT22;51349;52.424;10.840;2023-04-19T09:13:31;14.90;80.10
64869;DHT22;51349;52.424;10.840;2023-04-19T09:18:32;16.30;77.80
64869;DHT22;51349;52.424;10.840;2023-04-19T09:23:33;16.50;78.00
64869;DHT22;51349;52.424;10.840;2023-04-19T09:28:33;16.00;74.10
64869;DHT22;51349;52.424;10.840;2023-04-19T09:33:38;16.60;74.80
64869;DHT22;51349;52.424;10.840;2023-04-19T09:38:48;16.20;69.20
64869;DHT22;51349;52.424;10.840;2023-04-19T09:43:50;16.60;71.40
64869;DHT22;51349;52.424;10.840;2023-04-19T09:48:50;16.80;63.40
64869;DHT22;51349;52.424;10.840;2023-04-19T09:53:51;16.60;62.10
64869;DHT22;51349;52.424;10.840;2023-04-19T09:58:52;18.30;57.80
64869;DHT22;51349;52.424;10.840;2023-04-19T10:03:53;17.20;54.10
64869;DHT22;51349;52.424;10.840;2023-04-19T10:08:54;16.40;54.70
64869;DHT22;51349;52.424;10.840;2023-04-19T10:13:58;16.40;51.70
64869;DHT22;51349;52.424;10.840;2023-04-19T10:19:02;16.60;52.80
64869;DHT22;51349;52.424;10.840;2023-04-19T10:24:04;17.60;51.40
64869;DHT22;51349;52.424;10.840;2023-04-19T10:29:05;16.60;51.50
64869;DHT22;51349;52.424;10.840;2023-04-19T10:34:05;18.20;51.30
64869;DHT22;51349;52.424;10.840;2023-04-19T10:39:42;19.10;52.10
64869;DHT22;51349;52.424;10.840;2023-04-19T10:50:23;19.40;51.80
64869;DHT22;51349;52.424;10.840;2023-04-19T10:55:23;17.90;50.30
64869;DHT22;51349;52.424;10.840;2023-04-19T11:00:24;18.60;51.50
64869;DHT22;51349;52.424;10.840;2023-04-19T11:05:26;19.00;51.60
64869;DHT22;51349;52.424;10.840;2023-04-19T11:10:30;17.70;50.50
64869;DHT22;51349;52.424;10.840;2023-04-19T11:15:30;19.60;50.30
64869;DHT22;51349;52.424;10.840;2023-04-19T11:20:31;18.50;51.00
64869;DHT22;51349;52.424;10.840;2023-04-19T11:25:32;17.50;49.00
64869;DHT22;51349;52.424;10.840;2023-04-19T11:30:33;19.60;53.20
64869;DHT22;51349;52.424;10.840;2023-04-19T11:35:34;20.50;49.90
64869;DHT22;51349;52.424;10.840;2023-04-19T11:40:35;19.30;50.20
64869;DHT22;51349;52.424;10.840;2023-04-19T11:45:37;16.90;50.30
64869;DHT22;51349;52.424;10.840;2023-04-19T11:50:42;17.90;52.50
64869;DHT22;51349;52.424;10.840;2023-04-19T11:55:45;17.40;51.00
64869;DHT22;51349;52.424;10.840;2023-04-19T12:00:46;16.10;53.00
64869;DHT22;51349;52.424;10.840;2023-04-19T12:05:57;16.40;53.60
64869;DHT22;51349;52.424;10.840;2023-04-19T12:10:59;19.80;52.20
64869;DHT22;51349;52.424;10.840;2023-04-19T12:16:01;18.70;52.00
64869;DHT22;51349;52.424;10.840;2023-04-19T12:21:02;21.00;48.20
64869;DHT22;51349;52.424;10.840;2023-04-19T12:26:05;19.40;52.00
64869;DHT22;51349;52.424;10.840;2023-04-19T12:31:06;21.20;50.60
64869;DHT22;51349;52.424;10.840;2023-04-19T12:36:07;22.10;49.60
64869;DHT22;51349;52.424;10.840;2023-04-19T12:41:08;21.00;48.70
64869;DHT22;51349;52.424;10.840;2023-04-19T12:46:08;21.10;49.40
64869;DHT22;51349;52.424;10.840;2023-04-19T12:51:09;20.10;50.50
64869;DHT22;51349;52.424;10.840;2023-04-19T12:56:10;18.60;50.90
64869;DHT22;51349;52.424;10.840;2023-04-19T13:01:11;16.90;50.60
64869;DHT22;51349;52.424;10.840;2023-04-19T13:06:12;18.30;50.30
64869;DHT22;51349;52.424;10.840;2023-04-19T13:11:15;19.40;49.90
64869;DHT22;51349;52.424;10.840;2023-04-19T13:16:22;18.30;51.30
64869;DHT22;51349;52.424;10.840;2023-04-19T13:21:22;16.80;52.10
64869;DHT22;51349;52.424;10.840;2023-04-19T13:26:24;17.40;52.50
64869;DHT22;51349;52.424;10.840;2023-04-19T13:31:25;17.10;51.40
64869;DHT22;51349;52.424;10.840;2023-04-19T13:36:26;15.60;52.70
64869;DHT22;51349;52.424;10.840;2023-04-19T13:41:30;16.80;53.70
64869;DHT22;51349;52.424;10.840;2023-04-19T13:46:31;17.60;53.10
64869;DHT22;51349;52.424;10.840;2023-04-19T13:51:32;16.40;52.90
64869;DHT22;51349;52.424;10.840;2023-04-19T13:56:33;16.30;53.90
64869;DHT22;51349;52.424;10.840;2023-04-19T14:01:35;16.80;52.10
64869;DHT22;51349;52.424;10.840;2023-04-19T14:06:36;16.60;52.90
64869;DHT22;51349;52.424;10.840;2023-04-19T14:11:36;16.80;53.30
64869;DHT22;51349;52.424;10.840;2023-04-19T14:16:38;16.20;52.30
64869;DHT22;51349;52.424;10.840;2023-04-19T14:21:38;15.90;52.20
64869;DHT22;51349;52.424;10.840;2023-04-19T14:26:39;16.00;52.00
64869;DHT22;51349;52.424;10.840;2023-04-19T14:31:40;16.50;52.70
64869;DHT22;51349;52.424;10.840;2023-04-19T14:36:40;16.90;53.20
64869;DHT22;51349;52.424;10.840;2023-04-19T14:41:41;15.40;53.40
64869;DHT22;51349;52.424;10.840;2023-04-19T14:46:42;15.30;53.40
64869;DHT22;51349;52.424;10.840;2023-04-19T14:51:42;16.20;53.20
64869;DHT22;51349;52.424;10.840;2023-04-19T14:56:43;17.30;52.70
64869;DHT22;51349;52.424;10.840;2023-04-19T15:01:44;18.00;51.70
64869;DHT22;51349;52.424;10.840;2023-04-19T15:06:44;18.70;50.90
64869;DHT22;51349;52.424;10.840;2023-04-19T15:11:45;23.20;47.30
64869;DHT22;51349;52.424;10.840;2023-04-19T15:16:46;22.20;44.90
64869;DHT22;51349;52.424;10.840;2023-04-19T15:21:46;21.40;46.40
64869;DHT22;51349;52.424;10.840;2023-04-19T15:26:47;24.70;43.50
64869;DHT22;51349;52.424;10.840;2023-04-19T15:31:48;27.40;39.80
64869;DHT22;51349;52.424;10.840;2023-04-19T15:36:48;28.40;35.90
64869;DHT22;51349;52.424;10.840;2023-04-19T15:41:49;27.60;34.60
64869;DHT22;51349;52.424;10.840;2023-04-19T15:46:50;25.70;34.40
64869;DHT22;51349;52.424;10.840;2023-04-19T15:51:51;27.10;34.20
64869;DHT22;51349;52.424;10.840;2023-04-19T15:56:51;27.40;33.90
64869;DHT22;51349;52.424;10.840;2023-04-19T16:01:52;25.90;34.00
64869;DHT22;51349;52.424;10.840;2023-04-19T16:06:53;21.20;38.10
64869;DHT22;51349;52.424;10.840;2023-04-19T16:11:54;22.40;36.90
64869;DHT22;51349;52.424;10.840;2023-04-19T16:16:55;24.90;34.80
64869;DHT22;51349;52.424;10.840;2023-04-19T16:21:55;23.50;35.20
64869;DHT22;51349;52.424;10.840;2023-04-19T16:26:56;19.10;39.10
64869;DHT22;51349;52.424;10.840;2023-04-19T16:31:57;21.90;37.10
64869;DHT22;51349;52.424;10.840;2023-04-19T16:36:57;20.70;37.70
64869;DHT22;51349;52.424;10.840;2023-04-19T16:41:58;17.20;41.70
64869;DHT22;51349;52.424;10.840;2023-04-19T16:46:59;15.20;44.60
64869;DHT22;51349;52.424;10.840;2023-04-19T16:51:59;14.50;45.20
64869;DHT22;51349;52.424;10.840;2023-04-19T16:57:00;13.90;46.00
64869;DHT22;51349;52.424;10.840;2023-04-19T17:02:03;13.60;46.50
64869;DHT22;51349;52.424;10.840;2023-04-19T17:07:03;12.90;47.00
64869;DHT22;51349;52.424;10.840;2023-04-19T17:12:05;12.60;48.00
64869;DHT22;51349;52.424;10.840;2023-04-19T17:17:06;12.20;48.10
64869;DHT22;51349;52.424;10.840;2023-04-19T17:22:06;11.90;48.40
64869;DHT22;51349;52.424;10.840;2023-04-19T17:27:07;11.90;48.80
64869;DHT22;51349;52.424;10.840;2023-04-19T17:32:08;11.70;49.60
64869;DHT22;51349;52.424;10.840;2023-04-19T17:37:08;11.40;50.20
64869;DHT22;51349;52.424;10.840;2023-04-19T17:42:09;11.20;50.40
64869;DHT22;51349;52.424;10.840;2023-04-19T17:47:10;11.10;51.10
64869;DHT22;51349;52.424;10.840;2023-04-19T17:52:11;10.90;51.80
64869;DHT22;51349;52.424;10.840;2023-04-19T17:57:12;10.90;52.80
64869;DHT22;51349;52.424;10.840;2023-04-19T18:02:13;10.70;53.90
64869;DHT22;51349;52.424;10.840;2023-04-19T18:07:13;10.50;55.20
64869;DHT22;51349;52.424;10.840;2023-04-19T18:12:14;10.20;55.60
64869;DHT22;51349;52.424;10.840;2023-04-19T18:17:15;10.10;56.40
64869;DHT22;51349;52.424;10.840;2023-04-19T18:22:15;9.90;58.70
64869;DHT22;51349;52.424;10.840;2023-04-19T18:27:16;9.50;62.50
64869;DHT22;51349;52.424;10.840;2023-04-19T18:32:17;9.20;66.90
64869;DHT22;51349;52.424;10.840;2023-04-19T18:37:19;9.10;69.20
64869;DHT22;51349;52.424;10.840;2023-04-19T18:42:19;8.90;71.50
64869;DHT22;51349;52.424;10.840;2023-04-19T18:47:20;8.90;72.70
64869;DHT22;51349;52.424;10.840;2023-04-19T18:52:21;8.70;77.40
64869;DHT22;51349;52.424;10.840;2023-04-19T18:57:22;8.40;87.70
64869;DHT22;51349;52.424;10.840;2023-04-19T19:02:22;8.20;91.80
64869;DHT22;51349;52.424;10.840;2023-04-19T19:07:23;8.00;95.70
64869;DHT22;51349;52.424;10.840;2023-04-19T19:12:24;7.80;98.50
64869;DHT22;51349;52.424;10.840;2023-04-19T19:17:25;7.70;99.80
64869;DHT22;51349;52.424;10.840;2023-04-19T19:22:26;7.60;99.90
64869;DHT22;51349;52.424;10.840;2023-04-19T19:27:26;7.60;99.90
64869;DHT22;51349;52.424;10.840;2023-04-19T19:32:27;7.50;99.90
64869;DHT22;51349;52.424;10.840;2023-04-19T19:37:28;7.40;99.90
64869;DHT22;51349;52.424;10.840;2023-04-19T19:42:28;7.10;99.90
64869;DHT22;51349;52.424;10.840;2023-04-19T19:47:29;7.00;99.90
64869;DHT22;51349;52.424;10.840;2023-04-19T19:52:34;7.00;99.90
64869;DHT22;51349;52.424;10.840;2023-04-19T19:57:35;7.00;99.90
64869;DHT22;51349;52.424;10.840;2023-04-19T20:02:37;7.00;99.90
64869;DHT22;51349;52.424;10.840;2023-04-19T20:07:39;6.90;99.90
64869;DHT22;51349;52.424;10.840;2023-04-19T20:12:41;6.90;99.90
64869;DHT22;51349;52.424;10.840;2023-04-19T20:17:42;6.90;99.90
64869;DHT22;51349;52.424;10.840;2023-04-19T20:22:44;6.90;99.90
64869;DHT22;51349;52.424;10.840;2023-04-19T20:27:45;6.90;99.90
64869;DHT22;51349;52.424;10.840;2023-04-19T20:32:45;6.80;99.90
64869;DHT22;51349;52.424;10.840;2023-04-19T20:37:47;6.80;99.90
64869;DHT22;51349;52.424;10.840;2023-04-19T20:42:50;6.80;99.90
64869;DHT22;51349;52.424;10.840;2023-04-19T20:47:50;6.90;99.90
64869;DHT22;51349;52.424;10.840;2023-04-19T20:52:51;6.80;99.90
64869;DHT22;51349;52.424;10.840;2023-04-19T20:57:52;6.80;99.90
64869;DHT22;51349;52.424;10.840;2023-04-19T21:02:52;6.80;99.90
64869;DHT22;51349;52.424;10.840;2023-04-19T21:07:53;6.80;99.90
64869;DHT22;51349;52.424;10.840;2023-04-19T21:12:54;6.70;99.90
64869;DHT22;51349;52.424;10.840;2023-04-19T21:17:54;6.70;99.90
64869;DHT22;51349;52.424;10.840;2023-04-19T21:22:55;6.70;99.90
64869;DHT22;51349;52.424;10.840;2023-04-19T21:27:56;6.70;99.90
64869;DHT22;51349;52.424;10.840;2023-04-19T21:32:56;6.70;99.90
64869;DHT22;51349;52.424;10.840;2023-04-19T21:37:57;6.70;99.90
64869;DHT22;51349;52.424;10.840;2023-04-19T21:42:57;6.70;99.90
64869;DHT22;51349;52.424;10.840;2023-04-19T21:47:58;6.60;99.90
64869;DHT22;51349;52.424;10.840;2023-04-19T21:52:59;6.60;99.90
64869;DHT22;51349;52.424;10.840;2023-04-19T21:58:00;6.60;99.90
64869;DHT22;51349;52.424;10.840;2023-04-19T22:03:01;6.50;99.90
64869;DHT22;51349;52.424;10.840;2023-04-19T22:08:03;6.50;99.90
64869;DHT22;51349;52.424;10.840;2023-04-19T22:13:06;6.40;99.90
64869;DHT22;51349;52.424;10.840;2023-04-19T22:18:08;6.40;99.90
64869;DHT22;51349;52.424;10.840;2023-04-19T22:23:08;6.20;99.90
64869;DHT22;51349;52.424;10.840;2023-04-19T22:28:09;6.10;99.90
64869;DHT22;51349;52.424;10.840;2023-04-19T22:33:10;6.00;99.90
64869;DHT22;51349;52.424;10.840;2023-04-19T22:38:11;5.90;99.90
64869;DHT22;51349;52.424;10.840;2023-04-19T22:43:11;5.70;99.90
64869;DHT22;51349;52.424;10.840;2023-04-19T22:48:13;5.50;99.90
64869;DHT22;51349;52.424;10.840;2023-04-19T22:53:14;5.40;99.90
64869;DHT22;51349;52.424;10.840;2023-04-19T22:58:14;5.30;99.90
64869;DHT22;51349;52.424;10.840;2023-04-19T23:03:15;5.20;99.90
64869;DHT22;51349;52.424;10.840;2023-04-19T23:08:15;5.20;99.90
64869;DHT22;51349;52.424;10.840;2023-04-19T23:13:17;5.20;99.90
64869;DHT22;51349;52.424;10.840;2023-04-19T23:18:17;5.20;99.90
64869;DHT22;51349;52.424;10.840;2023-04-19T23:23:18;5.10;99.90
64869;DHT22;51349;52.424;10.840;2023-04-19T23:28:21;5.10;99.90
64869;DHT22;51349;52.424;10.840;2023-04-19T23:33:21;5.10;99.90
64869;DHT22;51349;52.424;10.840;2023-04-19T23:38:22;5.10;99.90
64869;DHT22;51349;52.424;10.840;2023-04-19T23:43:23;5.10;99.90
64869;DHT22;51349;52.424;10.840;2023-04-19T23:48:23;5.10;99.90
64869;DHT22;51349;52.424;10.840;2023-04-19T23:53:24;5.10;99.90
64869;DHT22;51349;52.424;10.840;2023-04-19T23:58:25;5.00;99.90
